Time;durP1;ratioP1;P1;durP2;ratioP2;P2;SDS_P1;SDS_P2;PMS_P1;PMS_P2;Temp;Humidity;BMP_temperature;BMP_pressure;BME280_temperature;BME280_humidity;BME280_pressure;Samples;Min_cycle;Max_cycle;Signal;HPM_P1;HPM_P2
2023/05/15 00:02:14;;;;;;;;;23.00;22.75;;;;;15.16;71.06;100902.81;5077312;28;45408;-70
2023/05/15 00:04:40;;;;;;;;;24.50;22.00;;;;;15.30;71.04;100917.09;5068638;28;45580;-70
2023/05/15 00:07:05;;;;;;;;;20.75;20.25;;;;;15.36;71.28;100916.31;5071518;28;46538;-71
2023/05/15 00:09:31;;;;;;;;;23.25;19.75;;;;;15.36;71.46;100918.94;5078100;28;45342;-72
2023/05/15 00:11:57;;;;;;;;;23.75;22.00;;;;;15.36;71.12;100907.50;5078684;28;45508;-71
2023/05/15 00:14:23;;;;;;;;;21.25;19.50;;;;;15.44;71.14;100909.41;5077920;28;45601;-68
2023/05/15 00:16:49;;;;;;;;;25.75;22.25;;;;;15.40;70.96;100896.16;5078569;28;45635;-70
2023/05/15 00:19:15;;;;;;;;;21.50;20.75;;;;;15.35;71.16;100887.31;5078128;28;45463;-70
2023/05/15 00:21:41;;;;;;;;;20.50;19.75;;;;;15.39;71.10;100886.50;5078497;28;45457;-70
2023/05/15 00:24:06;;;;;;;;;22.50;20.75;;;;;15.29;71.06;100873.19;5073859;28;45512;-70
2023/05/15 00:26:32;;;;;;;;;26.25;22.00;;;;;15.44;71.00;100887.47;5070729;28;46227;-70
2023/05/15 00:28:58;;;;;;;;;21.50;20.50;;;;;15.43;70.98;100886.56;5077932;27;45505;-71
2023/05/15 00:31:23;;;;;;;;;20.75;19.75;;;;;15.34;70.54;100875.00;5078216;27;45361;-71
2023/05/15 00:33:49;;;;;;;;;22.75;19.50;;;;;15.37;71.03;100883.84;5078243;28;45598;-70
2023/05/15 00:36:14;;;;;;;;;23.25;20.75;;;;;15.44;71.20;100887.47;5076538;28;46115;-70
2023/05/15 00:38:40;;;;;;;;;23.50;21.75;;;;;15.34;71.29;100868.00;5077978;28;45437;-70
2023/05/15 00:41:06;;;;;;;;;23.50;21.75;;;;;15.39;71.50;100866.31;5060848;28;45454;-70
2023/05/15 00:43:33;;;;;;;;;25.75;24.75;;;;;15.37;71.82;100867.16;5078434;28;45329;-70
2023/05/15 00:46:01;;;;;;;;;24.00;22.75;;;;;15.25;71.09;100850.31;5077384;27;46578;-70
2023/05/15 00:48:28;;;;;;;;;22.50;21.00;;;;;15.27;71.09;100864.38;5076867;27;45230;-70
2023/05/15 00:50:56;;;;;;;;;27.25;24.50;;;;;15.30;71.46;100864.44;5076173;28;45337;-70
2023/05/15 00:53:22;;;;;;;;;20.75;20.25;;;;;15.25;71.54;100849.44;5078059;27;45536;-70
2023/05/15 00:55:49;;;;;;;;;27.25;26.00;;;;;15.26;71.24;100860.00;5063636;28;45484;-70
2023/05/15 00:58:17;;;;;;;;;23.25;22.25;;;;;15.13;71.74;100836.97;5073799;28;45499;-71
2023/05/15 01:00:45;;;;;;;;;25.75;22.75;;;;;15.29;71.67;100862.66;5071178;28;45578;-71
2023/05/15 01:03:11;;;;;;;;;22.50;20.75;;;;;15.26;71.55;100853.81;5072124;28;45527;-70
2023/05/15 01:05:36;;;;;;;;;16.00;16.00;;;;;15.21;71.18;100845.84;5077374;28;45956;-70
2023/05/15 01:08:29;;;;;;;;;20.75;20.00;;;;;15.28;71.76;100853.00;5076887;28;45488;-70
2023/05/15 01:10:57;;;;;;;;;23.00;20.50;;;;;15.20;71.20;100833.59;5077765;28;45527;-70
2023/05/15 01:13:23;;;;;;;;;22.50;20.75;;;;;15.18;71.03;100839.66;5077488;28;45413;-71
2023/05/15 01:15:49;;;;;;;;;21.25;21.25;;;;;15.28;71.10;100854.75;5072975;28;46341;-70
2023/05/15 01:18:15;;;;;;;;;25.25;22.75;;;;;15.22;71.48;100855.53;5066401;28;45595;-70
2023/05/15 01:21:26;;;;;;;;;27.75;26.25;;;;;15.28;71.40;100849.50;5076351;28;45321;-70
2023/05/15 01:24:21;;;;;;;;;23.75;21.50;;;;;15.30;70.97;100846.03;5077513;28;45510;-70
2023/05/15 01:27:08;;;;;;;;;29.75;24.25;;;;;15.23;71.43;100836.25;5076628;28;46661;-70
2023/05/15 01:29:42;;;;;;;;;29.00;23.50;;;;;15.29;71.44;100852.13;5077243;28;45669;-71
2023/05/15 01:32:36;;;;;;;;;24.00;22.00;;;;;15.31;71.36;100850.41;5076761;28;45315;-70
2023/05/15 01:35:10;;;;;;;;;23.00;22.75;;;;;15.33;71.33;100842.53;5060511;28;45395;-71
2023/05/15 01:37:42;;;;;;;;;26.25;23.50;;;;;15.28;71.14;100839.84;5077189;27;46389;-70
2023/05/15 01:40:13;;;;;;;;;23.50;22.50;;;;;15.11;71.23;100813.25;5061706;28;45573;-71
2023/05/15 01:42:43;;;;;;;;;26.00;23.00;;;;;15.26;71.30;100836.31;5076043;28;45471;-71
2023/05/15 01:45:11;;;;;;;;;26.25;23.25;;;;;15.31;71.19;100834.59;5075160;28;45530;-71
2023/05/15 01:47:44;;;;;;;;;24.75;22.50;;;;;15.16;71.10;100825.59;5076735;28;45551;-71
2023/05/15 01:50:14;;;;;;;;;28.00;23.75;;;;;15.20;71.38;100840.56;5076323;28;45373;-70
2023/05/15 01:52:44;;;;;;;;;27.00;25.00;;;;;15.08;71.31;100804.41;5076936;28;45590;-70
2023/05/15 01:55:10;;;;;;;;;27.50;26.25;;;;;15.20;71.65;100824.78;5075192;28;45551;-70
2023/05/15 01:57:37;;;;;;;;;24.75;22.50;;;;;15.10;71.20;100811.50;5076782;28;45594;-70
2023/05/15 02:00:03;;;;;;;;;23.00;21.25;;;;;15.25;71.33;100838.91;5076055;28;45635;-70
2023/05/15 02:02:30;;;;;;;;;25.25;22.50;;;;;15.16;71.20;100815.97;5075313;28;45427;-70
2023/05/15 02:04:57;;;;;;;;;22.00;19.75;;;;;15.14;70.91;100817.69;5076663;27;45377;-71
2023/05/15 02:07:23;;;;;;;;;22.00;20.50;;;;;15.27;70.93;100835.44;5075175;28;46458;-69
2023/05/15 02:09:51;;;;;;;;;24.50;23.00;;;;;15.08;70.70;100801.78;5074747;28;45381;-69
2023/05/15 02:12:18;;;;;;;;;25.25;24.00;;;;;15.12;71.13;100835.22;5076385;28;45412;-70
2023/05/15 02:14:47;;;;;;;;;26.00;22.50;;;;;14.97;71.18;100827.94;5076957;28;45596;-70
2023/05/15 02:17:13;;;;;;;;;28.00;26.00;;;;;14.96;71.89;100833.16;5060580;28;47624;-70
2023/05/15 02:19:38;;;;;;;;;25.25;23.50;;;;;14.92;71.78;100832.22;5074102;28;45625;-70
2023/05/15 02:22:04;;;;;;;;;26.00;24.75;;;;;14.76;71.88;100817.03;5077081;28;45325;-70
2023/05/15 02:24:29;;;;;;;;;27.00;23.25;;;;;14.83;71.55;100834.72;5076602;28;45478;-70
2023/05/15 02:27:04;;;;;;;;;23.75;22.75;;;;;14.85;71.81;100839.13;5076318;28;46366;-70
2023/05/15 02:29:41;;;;;;;;;23.75;23.00;;;;;14.84;71.52;100834.75;5076023;28;45461;-70
2023/05/15 02:32:28;;;;;;;;;25.75;23.00;;;;;14.77;71.09;100819.72;5076713;28;45618;-70
2023/05/15 02:35:13;;;;;;;;;24.00;22.50;;;;;14.91;71.29;100839.25;5074897;28;45555;-70
2023/05/15 02:37:44;;;;;;;;;18.00;17.25;;;;;14.94;71.57;100834.88;5075773;27;46856;-70
2023/05/15 02:40:12;;;;;;;;;26.75;24.25;;;;;14.93;71.37;100831.38;5076139;28;45245;-70
2023/05/15 02:42:38;;;;;;;;;21.50;21.00;;;;;14.78;71.73;100816.25;5076560;28;45598;-69
2023/05/15 02:45:06;;;;;;;;;24.50;23.00;;;;;14.31;71.67;100743.53;5076049;28;45516;-70
2023/05/15 02:47:33;;;;;;;;;27.50;25.75;;;;;14.84;71.18;100824.22;5075640;28;45591;-70
2023/05/15 02:49:59;;;;;;;;;26.25;23.75;;;;;14.85;71.20;100825.97;5076242;28;45523;-70
2023/05/15 02:52:25;;;;;;;;;23.75;22.25;;;;;14.86;71.16;100825.16;5075743;27;45383;-71
2023/05/15 02:54:50;;;;;;;;;25.25;24.00;;;;;14.79;71.51;100817.13;5070239;28;45488;-70
2023/05/15 02:57:16;;;;;;;;;22.50;21.00;;;;;14.81;71.51;100832.06;5075772;28;45409;-70
2023/05/15 02:59:41;;;;;;;;;20.50;20.25;;;;;14.71;71.81;100828.38;5071472;28;45373;-70
2023/05/15 03:02:07;;;;;;;;;21.75;19.75;;;;;14.63;71.82;100808.06;5068415;28;45471;-70
2023/05/15 03:04:33;;;;;;;;;25.00;24.00;;;;;14.68;71.79;100822.16;5075125;28;45663;-70
2023/05/15 03:06:58;;;;;;;;;27.50;25.25;;;;;14.55;71.47;100807.03;5075703;28;48333;-70
2023/05/15 03:09:24;;;;;;;;;24.25;21.25;;;;;14.59;71.55;100824.66;5076184;28;45226;-70
2023/05/15 03:11:50;;;;;;;;;23.50;22.75;;;;;14.66;71.44;100837.94;5076349;27;45476;-69
2023/05/15 03:14:15;;;;;;;;;23.50;21.50;;;;;14.51;71.30;100811.34;5076269;27;45208;-70
2023/05/15 03:16:41;;;;;;;;;25.25;23.75;;;;;14.64;71.59;100822.97;5075665;28;45530;-69
2023/05/15 03:19:06;;;;;;;;;26.25;24.00;;;;;14.62;71.23;100815.09;5075010;28;45612;-71
2023/05/15 03:21:33;;;;;;;;;26.25;25.00;;;;;14.65;71.12;100841.41;5076277;28;45238;-69
2023/05/15 03:24:00;;;;;;;;;26.50;24.75;;;;;14.59;71.43;100825.53;5075400;28;45424;-71
2023/05/15 03:26:25;;;;;;;;;29.00;26.00;;;;;14.49;71.79;100819.19;5073694;28;45523;-71
2023/05/15 03:28:51;;;;;;;;;23.00;21.75;;;;;14.49;71.47;100819.19;5078856;28;45364;-71
2023/05/15 03:31:17;;;;;;;;;27.75;23.25;;;;;14.45;71.10;100811.22;5078719;28;45442;-71
2023/05/15 03:33:44;;;;;;;;;23.50;21.50;;;;;14.46;71.27;100812.97;5077875;28;45514;-71
2023/05/15 03:36:10;;;;;;;;;24.00;23.00;;;;;14.41;71.51;100799.75;5079818;28;46299;-71
2023/05/15 03:38:35;;;;;;;;;25.75;24.00;;;;;14.47;71.67;100807.75;5077720;28;45971;-71
2023/05/15 03:41:01;;;;;;;;;24.00;22.25;;;;;14.52;71.31;100814.00;5077607;28;45473;-71
2023/05/15 03:43:27;;;;;;;;;24.50;23.25;;;;;14.52;71.18;100819.25;5078617;27;45393;-71
2023/05/15 03:45:52;;;;;;;;;21.50;20.50;;;;;14.09;70.92;100728.22;5077765;28;45579;-71
2023/05/15 03:48:18;;;;;;;;;24.00;21.75;;;;;14.58;71.28;100812.34;5078544;28;45623;-71
2023/05/15 03:50:44;;;;;;;;;25.50;22.75;;;;;14.57;71.40;100805.34;5078625;28;45254;-71
2023/05/15 03:53:10;;;;;;;;;27.75;25.25;;;;;14.55;70.87;100801.78;5078238;27;45368;-71
2023/05/15 03:55:36;;;;;;;;;23.75;23.00;;;;;14.42;70.93;100777.88;5077372;28;46808;-71
2023/05/15 03:58:02;;;;;;;;;21.50;21.25;;;;;14.55;70.70;100786.88;5078245;28;45544;-71
2023/05/15 04:00:27;;;;;;;;;24.50;22.75;;;;;14.63;70.15;100802.81;5075297;27;45373;-71
2023/05/15 04:02:53;;;;;;;;;21.50;19.50;;;;;14.62;70.38;100798.41;5067212;28;45390;-71
2023/05/15 04:05:20;;;;;;;;;16.00;14.50;;;;;14.57;70.62;100794.81;5078807;28;46493;-71
2023/05/15 04:07:46;;;;;;;;;24.25;22.00;;;;;14.58;70.47;100793.94;5078208;27;45456;-70
2023/05/15 04:10:11;;;;;;;;;21.50;20.25;;;;;14.61;70.24;100794.91;5078843;28;45310;-71
2023/05/15 04:12:37;;;;;;;;;25.50;24.50;;;;;14.64;70.71;100797.59;5078052;28;45421;-71
2023/05/15 04:15:23;;;;;;;;;22.25;20.50;;;;;14.53;69.84;100789.47;5078587;28;45544;-71
2023/05/15 04:17:51;;;;;;;;;22.75;21.50;;;;;14.45;70.24;100758.66;5078761;28;45447;-71
2023/05/15 04:20:19;;;;;;;;;23.00;21.00;;;;;14.68;70.32;100802.03;5078822;27;45267;-71
2023/05/15 04:22:45;;;;;;;;;27.00;24.00;;;;;14.58;70.21;100776.44;5077764;28;45610;-71
2023/05/15 04:25:13;;;;;;;;;25.75;24.25;;;;;14.73;70.00;100796.84;5078201;28;45543;-71
2023/05/15 04:27:39;;;;;;;;;22.50;21.00;;;;;14.75;69.89;100802.16;5078029;28;45706;-71
2023/05/15 04:30:06;;;;;;;;;24.25;22.25;;;;;14.77;70.02;100803.94;5077174;27;45503;-71
2023/05/15 04:32:32;;;;;;;;;26.00;25.25;;;;;14.60;69.72;100769.44;5072176;28;45393;-71
2023/05/15 04:35:04;;;;;;;;;22.25;21.00;;;;;14.69;70.03;100795.03;5073265;28;46072;-71
2023/05/15 04:37:30;;;;;;;;;22.25;21.25;;;;;14.61;70.03;100779.13;5092792;27;45322;-69
2023/05/15 04:39:55;;;;;;;;;26.25;23.75;;;;;14.68;69.92;100785.34;5075700;28;45773;-68
2023/05/15 04:42:21;;;;;;;;;22.00;20.50;;;;;14.77;70.11;100798.66;5077392;27;45503;-69
2023/05/15 04:44:46;;;;;;;;;18.75;18.00;;;;;14.80;69.84;100803.09;5075346;28;46237;-69
2023/05/15 04:47:12;;;;;;;;;21.75;20.75;;;;;14.76;70.35;100785.50;5076907;27;45431;-69
2023/05/15 04:49:41;;;;;;;;;24.50;22.00;;;;;14.82;70.09;100802.28;5077289;27;45574;-69
2023/05/15 04:52:07;;;;;;;;;25.00;24.00;;;;;14.82;69.97;100791.75;5078095;28;45407;-69
2023/05/15 04:54:32;;;;;;;;;21.75;21.00;;;;;14.85;70.27;100801.44;5075571;28;45456;-69
2023/05/15 04:56:58;;;;;;;;;20.50;19.50;;;;;14.68;69.99;100770.50;5077335;28;45539;-70
2023/05/15 04:59:24;;;;;;;;;24.50;22.25;;;;;14.66;70.31;100752.91;5076082;28;45512;-70
2023/05/15 05:01:50;;;;;;;;;26.00;22.25;;;;;14.90;69.98;100794.50;5077314;28;45611;-70
2023/05/15 05:04:19;;;;;;;;;23.00;22.25;;;;;14.91;70.07;100791.88;5075114;27;46445;-70
2023/05/15 05:06:45;;;;;;;;;21.25;21.25;;;;;14.84;69.78;100773.34;5077253;28;45730;-69
2023/05/15 05:09:11;;;;;;;;;19.75;18.75;;;;;14.95;69.91;100789.31;5077279;28;45464;-70
2023/05/15 05:11:42;;;;;;;;;22.75;21.50;;;;;14.90;69.94;100789.22;5076950;28;45155;-70
2023/05/15 05:14:08;;;;;;;;;22.25;22.00;;;;;14.90;69.58;100779.63;5076358;27;45632;-69
2023/05/15 05:16:33;;;;;;;;;22.50;20.25;;;;;14.81;69.28;100755.78;5076902;27;45564;-69
2023/05/15 05:18:59;;;;;;;;;20.25;20.00;;;;;14.95;69.53;100776.16;5062311;28;45389;-69
2023/05/15 05:21:25;;;;;;;;;22.00;20.75;;;;;14.82;69.25;100756.66;5076857;28;45667;-71
2023/05/15 05:23:50;;;;;;;;;19.50;18.75;;;;;14.99;69.54;100788.50;5075197;28;45484;-71
2023/05/15 05:26:16;;;;;;;;;24.25;21.50;;;;;14.94;69.16;100779.66;5075782;28;45442;-68
2023/05/15 05:28:41;;;;;;;;;26.75;23.25;;;;;14.93;69.51;100772.63;5075915;28;45485;-69
2023/05/15 05:31:07;;;;;;;;;24.00;23.50;;;;;14.95;69.90;100776.16;5077067;28;45418;-69
2023/05/15 05:33:33;;;;;;;;;25.25;23.50;;;;;15.05;69.57;100788.59;5071323;28;47930;-68
2023/05/15 05:35:58;;;;;;;;;24.50;22.75;;;;;15.03;69.73;100778.03;5069221;28;45504;-69
2023/05/15 05:38:26;;;;;;;;;21.25;20.25;;;;;15.03;70.11;100793.84;5076744;28;45513;-70
2023/05/15 05:40:52;;;;;;;;;23.25;21.25;;;;;15.01;69.79;100782.41;5077250;27;45572;-70
2023/05/15 05:43:17;;;;;;;;;24.75;22.25;;;;;15.04;70.21;100793.00;5076221;28;45536;-70
2023/05/15 05:45:43;;;;;;;;;23.25;21.00;;;;;14.98;70.53;100779.75;5088933;27;45702;-70
2023/05/15 05:48:08;;;;;;;;;29.50;27.50;;;;;14.88;71.24;100767.28;5076227;28;45530;-71
2023/05/15 05:50:34;;;;;;;;;22.75;20.50;;;;;14.94;71.30;100783.19;5075867;28;45456;-70
2023/05/15 05:52:59;;;;;;;;;21.25;20.25;;;;;14.86;70.79;100775.16;5075740;27;46003;-71
2023/05/15 05:55:25;;;;;;;;;24.50;22.50;;;;;14.90;71.34;100784.88;5076289;28;45440;-72
2023/05/15 05:57:51;;;;;;;;;24.25;22.00;;;;;14.91;70.97;100798.91;5076531;28;45440;-70
2023/05/15 06:00:17;;;;;;;;;20.50;19.75;;;;;14.93;70.47;100785.78;5076030;27;45540;-70
2023/05/15 06:02:42;;;;;;;;;27.00;24.75;;;;;14.91;70.80;100783.13;5075950;28;45410;-70
2023/05/15 06:05:08;;;;;;;;;21.50;20.00;;;;;15.06;70.42;100795.63;5075579;27;45301;-69
2023/05/15 06:07:34;;;;;;;;;24.75;24.00;;;;;15.15;70.02;100802.78;5076093;28;45745;-69
2023/05/15 06:10:00;;;;;;;;;23.00;21.00;;;;;15.22;69.57;100800.28;5075947;27;45515;-69
2023/05/15 06:12:26;;;;;;;;;22.25;21.25;;;;;15.26;69.57;100799.47;5074257;28;46893;-69
2023/05/15 06:14:52;;;;;;;;;24.75;22.25;;;;;15.16;68.22;100791.38;5074590;27;45302;-72
2023/05/15 06:17:18;;;;;;;;;20.00;18.00;;;;;15.18;67.83;100806.34;5076459;27;45593;-72
2023/05/15 06:19:43;;;;;;;;;18.00;18.00;;;;;15.30;68.10;100805.66;5076349;28;45694;-70
2023/05/15 06:22:09;;;;;;;;;19.25;18.00;;;;;15.39;67.40;100804.91;5075323;28;46267;-70
2023/05/15 06:24:35;;;;;;;;;14.00;14.00;;;;;15.49;67.16;100804.16;5073113;28;45503;-71
2023/05/15 06:27:00;;;;;;;;;35.00;32.50;;;;;15.59;67.21;100803.41;5075734;28;45244;-71
2023/05/15 06:29:26;;;;;;;;;17.00;15.75;;;;;15.64;66.69;100793.84;5075864;28;45306;-71
2023/05/15 06:31:52;;;;;;;;;13.00;10.00;;;;;15.77;66.37;100807.19;5061193;28;47138;-71
2023/05/15 06:34:17;;;;;;;;;21.00;17.50;;;;;15.68;66.06;100778.97;5074825;27;45769;-71
2023/05/15 06:36:43;;;;;;;;;19.25;17.00;;;;;15.94;65.59;100802.16;5075662;28;45331;-71
2023/05/15 06:39:09;;;;;;;;;16.75;16.50;;;;;15.97;65.20;100789.00;5065285;28;45583;-71
2023/05/15 06:41:36;;;;;;;;;20.00;17.50;;;;;15.99;64.92;100784.63;5071499;28;45515;-71
2023/05/15 06:44:01;;;;;;;;;15.75;15.75;;;;;16.23;64.76;100802.47;5075217;27;45434;-71
2023/05/15 06:46:27;;;;;;;;;17.75;16.25;;;;;16.25;64.32;100784.91;5069294;28;45420;-71
2023/05/15 06:48:52;;;;;;;;;20.50;19.75;;;;;16.42;64.29;100804.44;5075633;28;45307;-71
2023/05/15 06:51:18;;;;;;;;;17.00;16.25;;;;;16.40;63.71;100764.00;5075594;28;46357;-70
2023/05/15 06:53:43;;;;;;;;;17.50;16.50;;;;;16.84;61.94;100789.91;5075138;28;45442;-70
2023/05/15 06:56:09;;;;;;;;;16.75;16.25;;;;;17.70;60.26;100790.44;5074531;28;45472;-70
2023/05/15 06:58:34;;;;;;;;;19.00;18.00;;;;;18.56;58.67;100762.50;5075337;28;45361;-70
2023/05/15 07:01:02;;;;;;;;;16.50;16.25;;;;;18.37;57.80;100774.84;5077907;28;45639;-71
2023/05/15 07:03:28;;;;;;;;;16.50;16.00;;;;;18.25;58.97;100783.63;5078587;28;45553;-71
2023/05/15 07:05:54;;;;;;;;;18.33;18.33;;;;;18.16;58.67;100779.19;5077688;27;45623;-71
2023/05/15 07:08:19;;;;;;;;;18.00;16.00;;;;;18.25;58.40;100781.00;5078988;27;45429;-72
2023/05/15 07:10:45;;;;;;;;;14.67;14.67;;;;;18.27;58.79;100760.72;5076533;28;46215;-71
2023/05/15 07:13:11;;;;;;;;;21.75;21.50;;;;;18.49;57.07;100758.97;5075132;28;45500;-71
2023/05/15 07:15:36;;;;;;;;;19.00;18.33;;;;;19.11;56.79;100770.47;5078840;28;45377;-70
2023/05/15 07:18:02;;;;;;;;;18.67;18.67;;;;;19.59;55.50;100752.66;5077877;27;45412;-71
2023/05/15 07:20:27;;;;;;;;;16.67;14.33;;;;;20.33;54.11;100760.25;5078816;28;45621;-70
2023/05/15 07:22:53;;;;;;;;;16.00;16.00;;;;;20.85;52.96;100764.34;5078387;27;45535;-71
2023/05/15 07:25:18;;;;;;;;;18.33;16.67;;;;;21.61;50.35;100765.34;5079554;28;45448;-70
2023/05/15 07:27:44;;;;;;;;;17.67;16.33;;;;;20.92;51.69;100758.06;5079537;28;45656;-71
2023/05/15 07:30:10;;;;;;;;;16.00;15.33;;;;;20.34;53.64;100766.47;5079214;28;46585;-71
2023/05/15 07:32:35;;;;;;;;;13.33;12.67;;;;;19.82;54.41;100759.69;5078749;28;45491;-70
2023/05/15 07:35:02;;;;;;;;;17.67;16.33;;;;;19.39;55.75;100765.97;5077944;28;45553;-71
2023/05/15 07:37:28;;;;;;;;;15.67;14.67;;;;;19.10;56.61;100779.31;5078503;28;45812;-71
2023/05/15 07:39:55;;;;;;;;;18.00;16.00;;;;;18.86;57.28;100767.84;5063794;28;45481;-71
2023/05/15 07:42:20;;;;;;;;;15.67;15.00;;;;;18.52;57.72;100751.03;5075944;28;45354;-71
2023/05/15 07:44:46;;;;;;;;;19.67;18.67;;;;;18.66;58.58;100761.63;5077742;27;45572;-70
2023/05/15 07:47:11;;;;;;;;;16.67;16.33;;;;;18.85;58.08;100794.31;5077497;28;45345;-72
2023/05/15 07:49:37;;;;;;;;;15.67;14.33;;;;;18.64;58.29;100768.69;5077763;27;46347;-70
2023/05/15 07:52:03;;;;;;;;;17.67;15.67;;;;;18.47;58.79;100758.97;5068324;28;45196;-71
2023/05/15 07:54:30;;;;;;;;;14.00;13.67;;;;;18.54;58.75;100772.19;5079662;27;45344;-70
2023/05/15 07:56:57;;;;;;;;;13.67;13.67;;;;;18.43;57.51;100775.72;5077865;28;45538;-70
2023/05/15 07:59:23;;;;;;;;;15.00;15.00;;;;;17.87;59.18;100690.13;5078642;27;46174;-69
2023/05/15 08:01:48;;;;;;;;;19.00;18.00;;;;;18.15;58.25;100779.22;5076925;28;45918;-70
2023/05/15 08:04:14;;;;;;;;;17.00;17.00;;;;;18.31;58.62;100764.25;5078041;28;45647;-69
2023/05/15 08:06:41;;;;;;;;;17.00;17.00;;;;;18.55;58.22;100748.41;5078976;28;45553;-70
2023/05/15 08:09:07;;;;;;;;;16.67;15.00;;;;;18.99;58.32;100774.00;5078655;27;46095;-70
2023/05/15 08:11:34;;;;;;;;;15.00;15.00;;;;;19.08;58.21;100773.13;5077453;28;45207;-69
2023/05/15 08:14:00;;;;;;;;;16.00;16.00;;;;;19.19;57.31;100773.09;5078681;27;45873;-71
2023/05/15 08:16:26;;;;;;;;;15.67;15.00;;;;;19.16;56.59;100763.41;5078061;28;45389;-71
2023/05/15 08:18:59;;;;;;;;;16.33;14.67;;;;;19.20;57.09;100757.22;5077140;28;45480;-71
2023/05/15 08:21:25;;;;;;;;;16.33;16.00;;;;;19.22;56.70;100763.38;5077299;27;45620;-71
2023/05/15 08:23:51;;;;;;;;;12.00;11.67;;;;;19.19;56.28;100771.31;5078848;28;45401;-71
2023/05/15 08:26:17;;;;;;;;;17.33;15.33;;;;;19.20;56.56;100757.22;5077678;27;46063;-71
2023/05/15 08:28:42;;;;;;;;;16.67;16.00;;;;;19.36;56.34;100760.72;5076010;28;47287;-72
2023/05/15 08:31:08;;;;;;;;;12.33;12.33;;;;;19.61;55.99;100748.25;5078056;28;45365;-71
2023/05/15 08:33:33;;;;;;;;;13.33;11.67;;;;;19.91;54.42;100761.41;5077173;28;45414;-71
2023/05/15 08:35:59;;;;;;;;;16.33;16.00;;;;;20.01;53.43;100761.34;5077521;28;45476;-70
2023/05/15 08:38:24;;;;;;;;;15.00;14.33;;;;;20.25;54.23;100755.03;5077010;28;45539;-69
2023/05/15 08:40:53;;;;;;;;;14.33;13.33;;;;;20.51;52.74;100761.03;5077108;28;45407;-70
2023/05/15 08:43:21;;;;;;;;;12.67;12.67;;;;;20.26;53.89;100750.59;5077053;28;45408;-69
2023/05/15 08:45:50;;;;;;;;;12.33;11.67;;;;;20.10;53.53;100767.50;5077070;28;45314;-71
2023/05/15 08:48:20;;;;;;;;;15.33;14.67;;;;;19.78;53.21;100757.94;5077791;28;46670;-70
2023/05/15 08:50:46;;;;;;;;;15.67;14.33;;;;;19.78;54.34;100765.91;5076600;28;45638;-70
2023/05/15 08:53:12;;;;;;;;;12.00;10.67;;;;;20.24;52.96;100747.06;5077605;28;45321;-70
2023/05/15 08:55:39;;;;;;;;;13.00;12.33;;;;;20.70;52.17;100760.03;5075680;28;45478;-70
2023/05/15 08:58:05;;;;;;;;;11.33;11.33;;;;;21.20;50.80;100755.13;5077058;28;46442;-70
2023/05/15 09:00:31;;;;;;;;;11.67;10.00;;;;;22.80;47.04;100735.25;5077059;28;45386;-71
2023/05/15 09:03:00;;;;;;;;;12.00;12.00;;;;;23.18;47.55;100754.13;5077496;28;45454;-70
2023/05/15 09:05:27;;;;;;;;;12.33;12.33;;;;;22.81;45.06;100741.44;5078248;27;45923;-71
2023/05/15 09:07:53;;;;;;;;;11.67;11.67;;;;;23.13;46.81;100748.88;5077599;27;45546;-71
2023/05/15 09:10:20;;;;;;;;;10.00;9.33;;;;;24.10;44.72;100751.38;5077186;28;45500;-70
2023/05/15 09:12:49;;;;;;;;;13.00;12.00;;;;;24.22;44.15;100751.09;5076700;28;45511;-70
2023/05/15 09:15:16;;;;;;;;;14.00;13.00;;;;;24.60;43.15;100755.53;5076324;27;45469;-71
2023/05/15 09:17:43;;;;;;;;;13.00;12.00;;;;;24.97;41.43;100737.72;5077112;28;46222;-70
2023/05/15 09:20:32;;;;;;;;;13.00;12.00;;;;;25.36;42.02;100757.13;5063351;28;45534;-70
2023/05/15 09:23:00;;;;;;;;;11.67;11.67;;;;;25.90;41.11;100735.97;5087397;27;45553;-70
2023/05/15 09:25:43;;;;;;;;;10.33;10.00;;;;;25.58;39.21;100719.06;5076929;27;45478;-69
2023/05/15 09:28:24;;;;;;;;;13.67;13.00;;;;;24.91;40.87;100752.09;5076011;28;45341;-71
2023/05/15 09:30:56;;;;;;;;;10.33;10.00;;;;;24.95;41.37;100755.56;5076625;28;45619;-71
2023/05/15 09:33:30;;;;;;;;;16.00;14.33;;;;;24.72;41.01;100741.00;5074661;28;45511;-70
2023/05/15 09:35:56;;;;;;;;;12.67;12.67;;;;;24.34;40.71;100726.78;5059432;28;45314;-70
2023/05/15 09:38:22;;;;;;;;;13.00;11.67;;;;;24.43;41.06;100725.66;5054853;28;45653;-70
2023/05/15 09:40:47;;;;;;;;;10.67;9.67;;;;;25.61;40.45;100727.03;5055548;28;45505;-70
2023/05/15 09:43:13;;;;;;;;;12.00;11.67;;;;;26.60;39.58;100722.19;5055611;28;45407;-70
2023/05/15 09:45:38;;;;;;;;;12.33;11.33;;;;;27.78;36.86;100728.66;5056240;28;45495;-71
2023/05/15 09:48:05;;;;;;;;;10.33;10.00;;;;;28.01;35.84;100694.69;5066074;28;46501;-71
2023/05/15 09:50:33;;;;;;;;;10.33;9.33;;;;;28.91;36.36;100734.91;5066009;28;45474;-71
2023/05/15 09:52:59;;;;;;;;;10.00;10.00;;;;;30.00;34.83;100716.47;5064162;28;45637;-73
2023/05/15 09:55:26;;;;;;;;;10.67;10.00;;;;;30.43;34.31;100729.72;5063976;28;45616;-71
2023/05/15 09:58:09;;;;;;;;;11.67;11.67;;;;;29.64;32.35;100735.22;5063532;28;46387;-70
2023/05/15 10:00:36;;;;;;;;;11.00;10.00;;;;;28.92;34.93;100736.63;5068937;28;45488;-71
2023/05/15 10:03:03;;;;;;;;;13.00;12.00;;;;;29.07;33.75;100733.28;5061168;28;45541;-71
2023/05/15 10:05:29;;;;;;;;;10.00;9.00;;;;;29.48;32.57;100722.47;5038098;28;45505;-71
2023/05/15 10:07:56;;;;;;;;;10.00;9.33;;;;;29.80;31.97;100730.91;5056662;28;45410;-71
2023/05/15 10:10:25;;;;;;;;;9.67;9.67;;;;;30.47;32.62;100717.81;5056208;28;45469;-71
2023/05/15 10:12:52;;;;;;;;;10.00;9.00;;;;;30.86;31.52;100714.03;5056303;28;45529;-71
2023/05/15 10:15:20;;;;;;;;;10.67;10.00;;;;;30.91;30.88;100712.84;5038603;28;45435;-71
2023/05/15 10:17:50;;;;;;;;;10.33;9.67;;;;;30.44;31.48;100718.84;5061404;28;46117;-70
2023/05/15 10:20:17;;;;;;;;;10.67;10.67;;;;;29.90;31.91;100732.22;5065073;28;45385;-70
2023/05/15 10:22:51;;;;;;;;;12.00;10.67;;;;;29.26;33.10;100735.16;5049273;28;45454;-70
2023/05/15 10:25:27;;;;;;;;;11.33;10.67;;;;;28.81;33.74;100736.19;5067137;28;45587;-71
2023/05/15 10:27:54;;;;;;;;;11.33;11.33;;;;;27.65;33.82;100735.41;5047844;28;45609;-73
2023/05/15 10:30:20;;;;;;;;;12.00;11.00;;;;;27.78;34.94;100728.66;5056817;28;45560;-70
2023/05/15 10:32:47;;;;;;;;;9.33;9.33;;;;;28.05;35.16;100728.53;5058767;28;45444;-70
2023/05/15 10:35:14;;;;;;;;;10.67;10.00;;;;;27.94;34.92;100728.97;5065952;28;45548;-70
2023/05/15 10:37:40;;;;;;;;;10.67;10.33;;;;;28.03;34.79;100732.22;5073177;28;46162;-70
2023/05/15 10:40:08;;;;;;;;;10.00;9.67;;;;;27.83;34.65;100715.03;5075933;27;45489;-70
2023/05/15 10:42:35;;;;;;;;;11.00;10.00;;;;;27.63;35.38;100736.41;5076040;27;45593;-70
2023/05/15 10:45:02;;;;;;;;;10.67;10.67;;;;;27.48;35.06;100721.78;5073642;28;45513;-71
2023/05/15 10:47:33;;;;;;;;;9.33;9.00;;;;;27.60;34.42;100718.63;5074883;28;45508;-71
2023/05/15 10:49:58;;;;;;;;;12.00;11.00;;;;;26.94;35.38;100713.00;5076060;27;45454;-72
2023/05/15 10:52:24;;;;;;;;;11.33;10.33;;;;;27.33;35.60;100713.34;5076017;27;45377;-72
2023/05/15 10:54:53;;;;;;;;;10.00;9.00;;;;;27.16;35.74;100703.22;5074649;27;45680;-72
2023/05/15 10:57:22;;;;;;;;;9.33;9.33;;;;;27.39;35.66;100709.56;5076031;27;45354;-71
2023/05/15 10:59:48;;;;;;;;;10.67;10.33;;;;;27.22;36.01;100707.50;5073712;28;45513;-70
2023/05/15 11:02:25;;;;;;;;;12.67;12.67;;;;;26.48;35.58;100710.06;5075931;28;45511;-70
2023/05/15 11:05:02;;;;;;;;;11.00;11.00;;;;;25.64;37.44;100721.56;5074875;28;45368;-70
2023/05/15 11:07:28;;;;;;;;;10.00;9.00;;;;;25.03;39.41;100721.50;5073423;28;46016;-71
2023/05/15 11:09:54;;;;;;;;;11.00;11.00;;;;;24.92;39.64;100735.13;5075722;28;45614;-70
2023/05/15 11:12:21;;;;;;;;;11.67;10.00;;;;;25.02;39.18;100733.09;5073300;28;45231;-70